sensor_id;sensor_type;location;lat;lon;timestamp;P1;durP1;ratioP1;P2;durP2;ratioP2
64052;SDS011;50299;49.524;8.536;2023-04-24T00:00:48;3.28;;;2.10;;
64052;SDS011;50299;49.524;8.536;2023-04-24T00:03:14;3.72;;;2.15;;
64052;SDS011;50299;49.524;8.536;2023-04-24T00:05:41;3.58;;;1.88;;
64052;SDS011;50299;49.524;8.536;2023-04-24T00:08:08;2.42;;;1.98;;
64052;SDS011;50299;49.524;8.536;2023-04-24T00:10:34;2.13;;;1.92;;
64052;SDS011;50299;49.524;8.536;2023-04-24T00:13:01;2.10;;;1.90;;
64052;SDS011;50299;49.524;8.536;2023-04-24T00:15:28;2.90;;;1.98;;
64052;SDS011;50299;49.524;8.536;2023-04-24T00:17:56;2.35;;;2.15;;
64052;SDS011;50299;49.524;8.536;2023-04-24T00:20:23;2.45;;;2.25;;
64052;SDS011;50299;49.524;8.536;2023-04-24T00:22:49;2.13;;;2.03;;
64052;SDS011;50299;49.524;8.536;2023-04-24T00:25:16;3.15;;;2.88;;
64052;SDS011;50299;49.524;8.536;2023-04-24T00:27:42;3.22;;;1.75;;
64052;SDS011;50299;49.524;8.536;2023-04-24T00:30:08;2.25;;;1.67;;
64052;SDS011;50299;49.524;8.536;2023-04-24T00:32:35;2.35;;;2.05;;
64052;SDS011;50299;49.524;8.536;2023-04-24T00:35:02;1.90;;;1.67;;
64052;SDS011;50299;49.524;8.536;2023-04-24T00:37:28;3.03;;;2.08;;
64052;SDS011;50299;49.524;8.536;2023-04-24T00:39:57;2.33;;;2.10;;
64052;SDS011;50299;49.524;8.536;2023-04-24T00:42:24;2.67;;;2.08;;
64052;SDS011;50299;49.524;8.536;2023-04-24T00:44:50;2.15;;;1.88;;
64052;SDS011;50299;49.524;8.536;2023-04-24T00:47:17;2.22;;;1.98;;
64052;SDS011;50299;49.524;8.536;2023-04-24T00:49:45;2.00;;;1.88;;
64052;SDS011;50299;49.524;8.536;2023-04-24T00:52:11;2.13;;;1.75;;
64052;SDS011;50299;49.524;8.536;2023-04-24T00:54:38;3.00;;;1.60;;
64052;SDS011;50299;49.524;8.536;2023-04-24T00:57:05;2.28;;;1.80;;
64052;SDS011;50299;49.524;8.536;2023-04-24T00:59:31;2.08;;;1.88;;
64052;SDS011;50299;49.524;8.536;2023-04-24T01:01:58;1.98;;;1.88;;
64052;SDS011;50299;49.524;8.536;2023-04-24T01:04:25;2.40;;;1.70;;
64052;SDS011;50299;49.524;8.536;2023-04-24T01:06:52;2.53;;;1.67;;
64052;SDS011;50299;49.524;8.536;2023-04-24T01:09:23;2.00;;;1.65;;
64052;SDS011;50299;49.524;8.536;2023-04-24T01:11:49;1.90;;;1.67;;
64052;SDS011;50299;49.524;8.536;2023-04-24T01:14:16;4.35;;;2.08;;
64052;SDS011;50299;49.524;8.536;2023-04-24T01:16:43;3.40;;;2.20;;
64052;SDS011;50299;49.524;8.536;2023-04-24T01:19:10;2.72;;;1.77;;
64052;SDS011;50299;49.524;8.536;2023-04-24T01:21:38;2.97;;;2.63;;
64052;SDS011;50299;49.524;8.536;2023-04-24T01:24:06;1.85;;;1.75;;
64052;SDS011;50299;49.524;8.536;2023-04-24T01:26:32;2.22;;;2.03;;
64052;SDS011;50299;49.524;8.536;2023-04-24T01:28:59;2.15;;;1.95;;
64052;SDS011;50299;49.524;8.536;2023-04-24T01:31:26;2.10;;;1.90;;
64052;SDS011;50299;49.524;8.536;2023-04-24T01:33:53;2.17;;;1.77;;
64052;SDS011;50299;49.524;8.536;2023-04-24T01:36:20;2.20;;;2.10;;
64052;SDS011;50299;49.524;8.536;2023-04-24T01:41:16;2.22;;;1.85;;
64052;SDS011;50299;49.524;8.536;2023-04-24T01:43:42;2.47;;;1.67;;
64052;SDS011;50299;49.524;8.536;2023-04-24T01:46:08;3.08;;;2.08;;
64052;SDS011;50299;49.524;8.536;2023-04-24T01:48:35;3.17;;;2.15;;
64052;SDS011;50299;49.524;8.536;2023-04-24T01:51:02;2.78;;;2.58;;
64052;SDS011;50299;49.524;8.536;2023-04-24T01:53:28;2.20;;;2.10;;
64052;SDS011;50299;49.524;8.536;2023-04-24T01:55:55;4.35;;;2.30;;
64052;SDS011;50299;49.524;8.536;2023-04-24T01:58:21;1.98;;;1.85;;
64052;SDS011;50299;49.524;8.536;2023-04-24T02:00:48;2.75;;;2.40;;
64052;SDS011;50299;49.524;8.536;2023-04-24T02:03:15;2.78;;;1.83;;
64052;SDS011;50299;49.524;8.536;2023-04-24T02:05:43;3.42;;;2.10;;
64052;SDS011;50299;49.524;8.536;2023-04-24T02:08:10;2.47;;;2.25;;
64052;SDS011;50299;49.524;8.536;2023-04-24T02:10:37;3.42;;;2.10;;
64052;SDS011;50299;49.524;8.536;2023-04-24T02:13:03;2.20;;;2.10;;
64052;SDS011;50299;49.524;8.536;2023-04-24T02:15:30;2.92;;;2.08;;
64052;SDS011;50299;49.524;8.536;2023-04-24T02:17:57;2.30;;;2.08;;
64052;SDS011;50299;49.524;8.536;2023-04-24T02:20:23;4.22;;;2.50;;
64052;SDS011;50299;49.524;8.536;2023-04-24T02:22:50;2.85;;;2.25;;
64052;SDS011;50299;49.524;8.536;2023-04-24T02:25:16;2.40;;;2.20;;
64052;SDS011;50299;49.524;8.536;2023-04-24T02:27:43;1.95;;;1.85;;
64052;SDS011;50299;49.524;8.536;2023-04-24T02:30:09;2.95;;;1.95;;
64052;SDS011;50299;49.524;8.536;2023-04-24T02:32:36;2.20;;;2.00;;
64052;SDS011;50299;49.524;8.536;2023-04-24T02:35:02;2.83;;;2.17;;
64052;SDS011;50299;49.524;8.536;2023-04-24T02:37:29;2.75;;;1.83;;
64052;SDS011;50299;49.524;8.536;2023-04-24T02:39:56;2.20;;;1.80;;
64052;SDS011;50299;49.524;8.536;2023-04-24T02:42:22;1.92;;;1.50;;
64052;SDS011;50299;49.524;8.536;2023-04-24T02:44:48;3.20;;;1.77;;
64052;SDS011;50299;49.524;8.536;2023-04-24T02:47:16;5.05;;;2.05;;
64052;SDS011;50299;49.524;8.536;2023-04-24T02:49:43;4.63;;;2.58;;
64052;SDS011;50299;49.524;8.536;2023-04-24T02:52:10;5.43;;;2.75;;
64052;SDS011;50299;49.524;8.536;2023-04-24T02:54:36;3.50;;;2.20;;
64052;SDS011;50299;49.524;8.536;2023-04-24T02:57:03;3.05;;;2.33;;
64052;SDS011;50299;49.524;8.536;2023-04-24T02:59:29;4.72;;;2.50;;
64052;SDS011;50299;49.524;8.536;2023-04-24T03:01:56;3.35;;;2.30;;
64052;SDS011;50299;49.524;8.536;2023-04-24T03:04:22;2.72;;;2.40;;
64052;SDS011;50299;49.524;8.536;2023-04-24T03:06:49;2.47;;;2.25;;
64052;SDS011;50299;49.524;8.536;2023-04-24T03:09:17;3.60;;;3.00;;
64052;SDS011;50299;49.524;8.536;2023-04-24T03:11:44;3.55;;;2.90;;
64052;SDS011;50299;49.524;8.536;2023-04-24T03:14:10;3.42;;;2.70;;
64052;SDS011;50299;49.524;8.536;2023-04-24T03:16:37;3.42;;;2.65;;
64052;SDS011;50299;49.524;8.536;2023-04-24T03:19:03;3.30;;;2.42;;
64052;SDS011;50299;49.524;8.536;2023-04-24T03:21:32;3.78;;;3.13;;
64052;SDS011;50299;49.524;8.536;2023-04-24T03:23:59;3.67;;;2.90;;
64052;SDS011;50299;49.524;8.536;2023-04-24T03:26:25;3.28;;;3.03;;
64052;SDS011;50299;49.524;8.536;2023-04-24T03:28:52;4.10;;;3.47;;
64052;SDS011;50299;49.524;8.536;2023-04-24T03:31:18;3.03;;;2.83;;
64052;SDS011;50299;49.524;8.536;2023-04-24T03:33:47;3.92;;;3.63;;
64052;SDS011;50299;49.524;8.536;2023-04-24T03:36:16;3.50;;;3.05;;
64052;SDS011;50299;49.524;8.536;2023-04-24T03:38:43;3.80;;;3.45;;
64052;SDS011;50299;49.524;8.536;2023-04-24T03:41:10;4.05;;;3.00;;
64052;SDS011;50299;49.524;8.536;2023-04-24T03:43:36;4.18;;;3.03;;
64052;SDS011;50299;49.524;8.536;2023-04-24T03:46:02;3.50;;;3.20;;
64052;SDS011;50299;49.524;8.536;2023-04-24T03:48:29;4.20;;;2.95;;
64052;SDS011;50299;49.524;8.536;2023-04-24T03:50:56;3.70;;;3.03;;
64052;SDS011;50299;49.524;8.536;2023-04-24T03:53:25;2.75;;;2.50;;
64052;SDS011;50299;49.524;8.536;2023-04-24T03:55:52;2.75;;;2.55;;
64052;SDS011;50299;49.524;8.536;2023-04-24T03:58:19;3.13;;;2.92;;
64052;SDS011;50299;49.524;8.536;2023-04-24T04:00:45;2.45;;;2.25;;
64052;SDS011;50299;49.524;8.536;2023-04-24T04:03:14;2.33;;;2.22;;
64052;SDS011;50299;49.524;8.536;2023-04-24T04:05:41;4.38;;;2.80;;
64052;SDS011;50299;49.524;8.536;2023-04-24T04:08:07;2.55;;;2.35;;
64052;SDS011;50299;49.524;8.536;2023-04-24T04:10:36;3.70;;;3.40;;
64052;SDS011;50299;49.524;8.536;2023-04-24T04:13:05;4.10;;;2.95;;
64052;SDS011;50299;49.524;8.536;2023-04-24T04:15:32;2.92;;;2.67;;
64052;SDS011;50299;49.524;8.536;2023-04-24T04:17:58;2.67;;;2.40;;
64052;SDS011;50299;49.524;8.536;2023-04-24T04:20:25;3.33;;;3.10;;
64052;SDS011;50299;49.524;8.536;2023-04-24T04:22:51;3.70;;;3.40;;
64052;SDS011;50299;49.524;8.536;2023-04-24T04:25:21;4.07;;;3.67;;
64052;SDS011;50299;49.524;8.536;2023-04-24T04:27:47;3.42;;;3.20;;
64052;SDS011;50299;49.524;8.536;2023-04-24T04:30:16;3.55;;;3.25;;
64052;SDS011;50299;49.524;8.536;2023-04-24T04:32:44;3.65;;;3.35;;
64052;SDS011;50299;49.524;8.536;2023-04-24T04:35:10;3.15;;;2.95;;
64052;SDS011;50299;49.524;8.536;2023-04-24T04:37:37;3.92;;;3.63;;
64052;SDS011;50299;49.524;8.536;2023-04-24T04:40:06;4.60;;;3.92;;
64052;SDS011;50299;49.524;8.536;2023-04-24T04:42:33;3.70;;;3.40;;
64052;SDS011;50299;49.524;8.536;2023-04-24T04:45:06;4.32;;;4.03;;
64052;SDS011;50299;49.524;8.536;2023-04-24T04:47:37;5.47;;;4.15;;
64052;SDS011;50299;49.524;8.536;2023-04-24T04:50:04;4.15;;;3.85;;
64052;SDS011;50299;49.524;8.536;2023-04-24T04:52:31;4.05;;;3.65;;
64052;SDS011;50299;49.524;8.536;2023-04-24T04:54:57;4.68;;;4.20;;
64052;SDS011;50299;49.524;8.536;2023-04-24T04:57:24;4.43;;;4.13;;
64052;SDS011;50299;49.524;8.536;2023-04-24T04:59:51;4.45;;;4.05;;
64052;SDS011;50299;49.524;8.536;2023-04-24T05:02:17;4.78;;;4.38;;
64052;SDS011;50299;49.524;8.536;2023-04-24T05:04:44;5.13;;;4.70;;
64052;SDS011;50299;49.524;8.536;2023-04-24T05:07:11;5.10;;;4.70;;
64052;SDS011;50299;49.524;8.536;2023-04-24T05:09:38;5.72;;;5.22;;
64052;SDS011;50299;49.524;8.536;2023-04-24T05:12:09;5.65;;;5.25;;
64052;SDS011;50299;49.524;8.536;2023-04-24T05:14:38;5.20;;;4.70;;
64052;SDS011;50299;49.524;8.536;2023-04-24T05:17:07;5.07;;;4.68;;
64052;SDS011;50299;49.524;8.536;2023-04-24T05:19:36;5.78;;;5.22;;
64052;SDS011;50299;49.524;8.536;2023-04-24T05:22:08;5.70;;;4.68;;
64052;SDS011;50299;49.524;8.536;2023-04-24T05:24:36;5.40;;;4.90;;
64052;SDS011;50299;49.524;8.536;2023-04-24T05:27:03;4.88;;;4.32;;
64052;SDS011;50299;49.524;8.536;2023-04-24T05:29:38;4.30;;;4.00;;
64052;SDS011;50299;49.524;8.536;2023-04-24T05:32:08;5.20;;;4.65;;
64052;SDS011;50299;49.524;8.536;2023-04-24T05:34:35;4.45;;;4.05;;
64052;SDS011;50299;49.524;8.536;2023-04-24T05:37:12;4.00;;;3.70;;
64052;SDS011;50299;49.524;8.536;2023-04-24T05:39:39;5.20;;;4.70;;
64052;SDS011;50299;49.524;8.536;2023-04-24T05:42:08;4.90;;;4.30;;
64052;SDS011;50299;49.524;8.536;2023-04-24T05:44:37;6.32;;;5.75;;
64052;SDS011;50299;49.524;8.536;2023-04-24T05:47:07;6.53;;;5.95;;
64052;SDS011;50299;49.524;8.536;2023-04-24T05:49:37;6.72;;;6.10;;
64052;SDS011;50299;49.524;8.536;2023-04-24T05:52:06;7.50;;;6.88;;
64052;SDS011;50299;49.524;8.536;2023-04-24T05:54:37;6.25;;;5.53;;
64052;SDS011;50299;49.524;8.536;2023-04-24T05:59:37;7.55;;;6.82;;
64052;SDS011;50299;49.524;8.536;2023-04-24T06:02:12;8.23;;;7.43;;
64052;SDS011;50299;49.524;8.536;2023-04-24T06:04:45;7.72;;;7.03;;
64052;SDS011;50299;49.524;8.536;2023-04-24T06:07:12;6.95;;;6.28;;
64052;SDS011;50299;49.524;8.536;2023-04-24T06:09:38;7.00;;;6.03;;
64052;SDS011;50299;49.524;8.536;2023-04-24T06:12:09;6.60;;;6.10;;
64052;SDS011;50299;49.524;8.536;2023-04-24T06:14:45;5.97;;;5.38;;
64052;SDS011;50299;49.524;8.536;2023-04-24T06:17:21;7.18;;;5.38;;
64052;SDS011;50299;49.524;8.536;2023-04-24T06:20:08;5.70;;;4.85;;
64052;SDS011;50299;49.524;8.536;2023-04-24T06:22:40;5.95;;;5.43;;
64052;SDS011;50299;49.524;8.536;2023-04-24T06:25:09;6.63;;;6.03;;
64052;SDS011;50299;49.524;8.536;2023-04-24T06:27:43;5.70;;;5.00;;
64052;SDS011;50299;49.524;8.536;2023-04-24T06:30:19;6.13;;;5.47;;
64052;SDS011;50299;49.524;8.536;2023-04-24T06:32:47;7.78;;;6.35;;
64052;SDS011;50299;49.524;8.536;2023-04-24T06:35:14;7.45;;;5.78;;
64052;SDS011;50299;49.524;8.536;2023-04-24T06:38:13;6.32;;;5.40;;
64052;SDS011;50299;49.524;8.536;2023-04-24T06:40:39;6.00;;;4.18;;
64052;SDS011;50299;49.524;8.536;2023-04-24T06:43:06;5.40;;;4.88;;
64052;SDS011;50299;49.524;8.536;2023-04-24T06:45:38;7.78;;;4.68;;
64052;SDS011;50299;49.524;8.536;2023-04-24T06:48:08;5.47;;;4.97;;
64052;SDS011;50299;49.524;8.536;2023-04-24T06:50:39;4.88;;;4.47;;
64052;SDS011;50299;49.524;8.536;2023-04-24T06:53:10;4.47;;;4.07;;
64052;SDS011;50299;49.524;8.536;2023-04-24T06:55:39;4.45;;;4.05;;
64052;SDS011;50299;49.524;8.536;2023-04-24T06:58:05;4.10;;;3.67;;
64052;SDS011;50299;49.524;8.536;2023-04-24T07:00:32;5.30;;;3.47;;
64052;SDS011;50299;49.524;8.536;2023-04-24T07:03:10;8.57;;;3.65;;
64052;SDS011;50299;49.524;8.536;2023-04-24T07:05:39;3.63;;;3.05;;
64052;SDS011;50299;49.524;8.536;2023-04-24T07:08:08;2.60;;;2.38;;
64052;SDS011;50299;49.524;8.536;2023-04-24T07:10:37;2.42;;;2.25;;
64052;SDS011;50299;49.524;8.536;2023-04-24T07:13:06;3.45;;;2.72;;
64052;SDS011;50299;49.524;8.536;2023-04-24T07:18:06;3.65;;;3.35;;
64052;SDS011;50299;49.524;8.536;2023-04-24T07:20:32;3.38;;;3.08;;
64052;SDS011;50299;49.524;8.536;2023-04-24T07:22:59;3.15;;;2.95;;
64052;SDS011;50299;49.524;8.536;2023-04-24T07:25:29;4.15;;;2.50;;
64052;SDS011;50299;49.524;8.536;2023-04-24T07:27:56;5.65;;;2.53;;
64052;SDS011;50299;49.524;8.536;2023-04-24T07:30:24;4.20;;;2.40;;
64052;SDS011;50299;49.524;8.536;2023-04-24T07:32:55;2.65;;;2.45;;
64052;SDS011;50299;49.524;8.536;2023-04-24T07:35:22;2.72;;;2.53;;
64052;SDS011;50299;49.524;8.536;2023-04-24T07:37:49;3.03;;;2.55;;
64052;SDS011;50299;49.524;8.536;2023-04-24T07:40:19;2.95;;;2.80;;
64052;SDS011;50299;49.524;8.536;2023-04-24T07:42:47;2.60;;;2.40;;
64052;SDS011;50299;49.524;8.536;2023-04-24T07:45:16;3.50;;;3.30;;
64052;SDS011;50299;49.524;8.536;2023-04-24T07:47:49;2.58;;;2.38;;
64052;SDS011;50299;49.524;8.536;2023-04-24T07:50:20;3.00;;;2.67;;
64052;SDS011;50299;49.524;8.536;2023-04-24T07:52:47;3.28;;;3.00;;
64052;SDS011;50299;49.524;8.536;2023-04-24T07:55:16;3.58;;;3.38;;
64052;SDS011;50299;49.524;8.536;2023-04-24T07:57:50;3.08;;;2.78;;
64052;SDS011;50299;49.524;8.536;2023-04-24T08:00:17;3.33;;;2.38;;
64052;SDS011;50299;49.524;8.536;2023-04-24T08:02:43;3.13;;;2.92;;
64052;SDS011;50299;49.524;8.536;2023-04-24T08:05:11;5.35;;;3.08;;
64052;SDS011;50299;49.524;8.536;2023-04-24T08:07:38;3.97;;;3.60;;
64052;SDS011;50299;49.524;8.536;2023-04-24T08:10:09;3.38;;;3.17;;
64052;SDS011;50299;49.524;8.536;2023-04-24T08:12:37;3.42;;;3.13;;
64052;SDS011;50299;49.524;8.536;2023-04-24T08:15:04;3.00;;;2.50;;
64052;SDS011;50299;49.524;8.536;2023-04-24T08:17:31;3.33;;;3.13;;
64052;SDS011;50299;49.524;8.536;2023-04-24T08:19:58;3.92;;;2.97;;
64052;SDS011;50299;49.524;8.536;2023-04-24T08:22:30;4.68;;;3.03;;
64052;SDS011;50299;49.524;8.536;2023-04-24T08:24:59;3.20;;;3.00;;
64052;SDS011;50299;49.524;8.536;2023-04-24T08:27:26;3.47;;;2.30;;
64052;SDS011;50299;49.524;8.536;2023-04-24T08:29:56;2.60;;;2.40;;
64052;SDS011;50299;49.524;8.536;2023-04-24T08:32:25;3.17;;;2.60;;
64052;SDS011;50299;49.524;8.536;2023-04-24T08:34:55;4.32;;;3.25;;
64052;SDS011;50299;49.524;8.536;2023-04-24T08:37:25;4.47;;;3.25;;
64052;SDS011;50299;49.524;8.536;2023-04-24T08:39:53;3.40;;;3.00;;
64052;SDS011;50299;49.524;8.536;2023-04-24T08:42:19;4.50;;;3.05;;
64052;SDS011;50299;49.524;8.536;2023-04-24T08:44:48;3.33;;;3.03;;
64052;SDS011;50299;49.524;8.536;2023-04-24T08:47:17;4.85;;;3.00;;
64052;SDS011;50299;49.524;8.536;2023-04-24T08:49:47;3.95;;;3.05;;
64052;SDS011;50299;49.524;8.536;2023-04-24T08:52:18;11.57;;;4.05;;
64052;SDS011;50299;49.524;8.536;2023-04-24T08:54:45;3.38;;;3.13;;
64052;SDS011;50299;49.524;8.536;2023-04-24T08:57:12;5.15;;;3.28;;
64052;SDS011;50299;49.524;8.536;2023-04-24T08:59:40;3.53;;;3.22;;
64052;SDS011;50299;49.524;8.536;2023-04-24T09:02:26;3.55;;;3.25;;
64052;SDS011;50299;49.524;8.536;2023-04-24T09:04:55;5.72;;;3.30;;
64052;SDS011;50299;49.524;8.536;2023-04-24T09:07:22;3.60;;;3.17;;
64052;SDS011;50299;49.524;8.536;2023-04-24T09:09:53;3.80;;;3.50;;
64052;SDS011;50299;49.524;8.536;2023-04-24T09:12:20;6.82;;;2.97;;
64052;SDS011;50299;49.524;8.536;2023-04-24T09:14:46;5.65;;;3.03;;
64052;SDS011;50299;49.524;8.536;2023-04-24T09:17:14;3.40;;;3.10;;
64052;SDS011;50299;49.524;8.536;2023-04-24T09:19:41;3.80;;;3.50;;
64052;SDS011;50299;49.524;8.536;2023-04-24T09:22:07;3.63;;;2.45;;
64052;SDS011;50299;49.524;8.536;2023-04-24T09:24:35;4.97;;;3.08;;
64052;SDS011;50299;49.524;8.536;2023-04-24T09:27:04;3.10;;;2.80;;
64052;SDS011;50299;49.524;8.536;2023-04-24T09:29:31;5.13;;;2.97;;
64052;SDS011;50299;49.524;8.536;2023-04-24T09:31:59;5.63;;;3.35;;
64052;SDS011;50299;49.524;8.536;2023-04-24T09:34:26;3.42;;;2.90;;
64052;SDS011;50299;49.524;8.536;2023-04-24T09:36:55;3.78;;;2.85;;
64052;SDS011;50299;49.524;8.536;2023-04-24T09:39:22;3.28;;;2.70;;
64052;SDS011;50299;49.524;8.536;2023-04-24T09:41:52;3.80;;;2.80;;
64052;SDS011;50299;49.524;8.536;2023-04-24T09:44:20;4.25;;;3.03;;
64052;SDS011;50299;49.524;8.536;2023-04-24T09:46:59;3.20;;;2.90;;
64052;SDS011;50299;49.524;8.536;2023-04-24T09:49:27;4.20;;;2.95;;
64052;SDS011;50299;49.524;8.536;2023-04-24T09:52:08;3.55;;;3.15;;
64052;SDS011;50299;49.524;8.536;2023-04-24T09:54:41;3.60;;;3.30;;
64052;SDS011;50299;49.524;8.536;2023-04-24T09:57:07;3.35;;;2.92;;
64052;SDS011;50299;49.524;8.536;2023-04-24T09:59:35;5.35;;;3.25;;
64052;SDS011;50299;49.524;8.536;2023-04-24T10:02:17;14.07;;;4.15;;
64052;SDS011;50299;49.524;8.536;2023-04-24T10:04:56;4.43;;;3.28;;
64052;SDS011;50299;49.524;8.536;2023-04-24T10:07:28;4.07;;;3.40;;
64052;SDS011;50299;49.524;8.536;2023-04-24T10:09:54;6.13;;;3.45;;
64052;SDS011;50299;49.524;8.536;2023-04-24T10:12:27;3.50;;;2.88;;
64052;SDS011;50299;49.524;8.536;2023-04-24T10:14:55;3.08;;;2.83;;
64052;SDS011;50299;49.524;8.536;2023-04-24T10:17:23;3.20;;;2.90;;
64052;SDS011;50299;49.524;8.536;2023-04-24T10:19:53;5.18;;;3.05;;
64052;SDS011;50299;49.524;8.536;2023-04-24T10:22:24;2.72;;;2.53;;
64052;SDS011;50299;49.524;8.536;2023-04-24T10:24:50;3.88;;;2.50;;
64052;SDS011;50299;49.524;8.536;2023-04-24T10:27:18;2.72;;;2.50;;
64052;SDS011;50299;49.524;8.536;2023-04-24T10:29:46;2.78;;;2.58;;
64052;SDS011;50299;49.524;8.536;2023-04-24T10:32:13;2.58;;;2.38;;
64052;SDS011;50299;49.524;8.536;2023-04-24T10:34:40;3.22;;;2.97;;
64052;SDS011;50299;49.524;8.536;2023-04-24T10:37:10;3.17;;;2.88;;
64052;SDS011;50299;49.524;8.536;2023-04-24T10:39:36;3.33;;;2.78;;
64052;SDS011;50299;49.524;8.536;2023-04-24T10:42:15;3.25;;;3.05;;
64052;SDS011;50299;49.524;8.536;2023-04-24T10:44:43;3.35;;;2.35;;
64052;SDS011;50299;49.524;8.536;2023-04-24T10:47:13;3.42;;;2.65;;
64052;SDS011;50299;49.524;8.536;2023-04-24T10:49:40;2.88;;;2.60;;
64052;SDS011;50299;49.524;8.536;2023-04-24T10:52:09;3.67;;;3.38;;
64052;SDS011;50299;49.524;8.536;2023-04-24T10:54:36;4.25;;;2.78;;
64052;SDS011;50299;49.524;8.536;2023-04-24T10:59:46;5.82;;;3.63;;
64052;SDS011;50299;49.524;8.536;2023-04-24T11:02:14;6.82;;;2.95;;
64052;SDS011;50299;49.524;8.536;2023-04-24T11:04:44;4.57;;;3.15;;
64052;SDS011;50299;49.524;8.536;2023-04-24T11:07:11;3.42;;;3.17;;
64052;SDS011;50299;49.524;8.536;2023-04-24T11:09:38;3.67;;;3.38;;
64052;SDS011;50299;49.524;8.536;2023-04-24T11:12:08;4.63;;;4.20;;
64052;SDS011;50299;49.524;8.536;2023-04-24T11:14:59;4.03;;;3.53;;
64052;SDS011;50299;49.524;8.536;2023-04-24T11:17:35;3.28;;;2.97;;
64052;SDS011;50299;49.524;8.536;2023-04-24T11:20:10;4.07;;;3.08;;
64052;SDS011;50299;49.524;8.536;2023-04-24T11:22:53;5.90;;;3.33;;
64052;SDS011;50299;49.524;8.536;2023-04-24T11:25:24;3.50;;;3.08;;
64052;SDS011;50299;49.524;8.536;2023-04-24T11:28:02;7.00;;;3.65;;
64052;SDS011;50299;49.524;8.536;2023-04-24T11:30:32;3.80;;;3.50;;
64052;SDS011;50299;49.524;8.536;2023-04-24T11:33:03;7.57;;;4.40;;
64052;SDS011;50299;49.524;8.536;2023-04-24T11:35:34;3.53;;;3.22;;
64052;SDS011;50299;49.524;8.536;2023-04-24T11:38:07;6.47;;;3.28;;
64052;SDS011;50299;49.524;8.536;2023-04-24T11:40:52;14.80;;;3.90;;
64052;SDS011;50299;49.524;8.536;2023-04-24T11:43:20;4.53;;;4.13;;
64052;SDS011;50299;49.524;8.536;2023-04-24T11:45:48;6.65;;;4.50;;
64052;SDS011;50299;49.524;8.536;2023-04-24T11:48:18;5.32;;;3.67;;
64052;SDS011;50299;49.524;8.536;2023-04-24T11:50:50;5.00;;;3.55;;
64052;SDS011;50299;49.524;8.536;2023-04-24T11:53:18;4.40;;;4.00;;
64052;SDS011;50299;49.524;8.536;2023-04-24T11:55:46;4.40;;;3.88;;
64052;SDS011;50299;49.524;8.536;2023-04-24T11:58:13;5.25;;;4.07;;
64052;SDS011;50299;49.524;8.536;2023-04-24T12:00:39;4.50;;;3.75;;
64052;SDS011;50299;49.524;8.536;2023-04-24T12:05:39;5.60;;;3.80;;
64052;SDS011;50299;49.524;8.536;2023-04-24T12:08:06;4.93;;;3.85;;
64052;SDS011;50299;49.524;8.536;2023-04-24T12:10:33;6.47;;;4.72;;
64052;SDS011;50299;49.524;8.536;2023-04-24T12:13:01;4.63;;;3.83;;
64052;SDS011;50299;49.524;8.536;2023-04-24T12:15:27;4.30;;;3.78;;
64052;SDS011;50299;49.524;8.536;2023-04-24T12:17:55;11.57;;;4.20;;
64052;SDS011;50299;49.524;8.536;2023-04-24T12:20:26;5.85;;;3.90;;
64052;SDS011;50299;49.524;8.536;2023-04-24T12:22:58;4.38;;;3.97;;
64052;SDS011;50299;49.524;8.536;2023-04-24T12:25:27;4.85;;;3.90;;
64052;SDS011;50299;49.524;8.536;2023-04-24T12:28:08;4.82;;;4.32;;
64052;SDS011;50299;49.524;8.536;2023-04-24T12:30:42;5.10;;;4.00;;
64052;SDS011;50299;49.524;8.536;2023-04-24T12:33:17;4.30;;;3.70;;
64052;SDS011;50299;49.524;8.536;2023-04-24T12:35:48;8.48;;;4.32;;
64052;SDS011;50299;49.524;8.536;2023-04-24T12:38:23;4.82;;;3.78;;
64052;SDS011;50299;49.524;8.536;2023-04-24T12:41:04;6.57;;;4.13;;
64052;SDS011;50299;49.524;8.536;2023-04-24T12:43:35;4.13;;;3.72;;
64052;SDS011;50299;49.524;8.536;2023-04-24T12:46:02;10.82;;;4.40;;
64052;SDS011;50299;49.524;8.536;2023-04-24T12:48:29;5.10;;;4.40;;
64052;SDS011;50299;49.524;8.536;2023-04-24T12:50:57;6.15;;;4.68;;
64052;SDS011;50299;49.524;8.536;2023-04-24T12:53:27;4.75;;;4.35;;
64052;SDS011;50299;49.524;8.536;2023-04-24T12:55:57;5.53;;;4.30;;
64052;SDS011;50299;49.524;8.536;2023-04-24T12:58:24;5.60;;;4.03;;
64052;SDS011;50299;49.524;8.536;2023-04-24T13:00:58;6.95;;;4.97;;
64052;SDS011;50299;49.524;8.536;2023-04-24T13:03:25;8.68;;;4.38;;
64052;SDS011;50299;49.524;8.536;2023-04-24T13:05:57;4.38;;;3.92;;
64052;SDS011;50299;49.524;8.536;2023-04-24T13:08:23;4.72;;;4.32;;
64052;SDS011;50299;49.524;8.536;2023-04-24T13:10:50;7.60;;;3.80;;
64052;SDS011;50299;49.524;8.536;2023-04-24T13:13:25;6.47;;;4.00;;
64052;SDS011;50299;49.524;8.536;2023-04-24T13:15:52;5.22;;;3.75;;
64052;SDS011;50299;49.524;8.536;2023-04-24T13:18:21;5.13;;;4.28;;
64052;SDS011;50299;49.524;8.536;2023-04-24T13:20:52;4.25;;;3.88;;
64052;SDS011;50299;49.524;8.536;2023-04-24T13:23:23;5.93;;;4.22;;
64052;SDS011;50299;49.524;8.536;2023-04-24T13:25:52;5.88;;;4.63;;
64052;SDS011;50299;49.524;8.536;2023-04-24T13:28:21;7.20;;;3.72;;
64052;SDS011;50299;49.524;8.536;2023-04-24T13:30:47;5.78;;;3.50;;
64052;SDS011;50299;49.524;8.536;2023-04-24T13:33:17;7.28;;;4.57;;
64052;SDS011;50299;49.524;8.536;2023-04-24T13:35:43;3.47;;;3.22;;
64052;SDS011;50299;49.524;8.536;2023-04-24T13:38:10;4.07;;;3.70;;
64052;SDS011;50299;49.524;8.536;2023-04-24T13:40:36;4.65;;;4.13;;
64052;SDS011;50299;49.524;8.536;2023-04-24T13:43:06;4.93;;;4.47;;
64052;SDS011;50299;49.524;8.536;2023-04-24T13:45:34;4.28;;;3.63;;
64052;SDS011;50299;49.524;8.536;2023-04-24T13:48:01;5.90;;;5.18;;
64052;SDS011;50299;49.524;8.536;2023-04-24T13:50:29;5.18;;;4.03;;
64052;SDS011;50299;49.524;8.536;2023-04-24T13:55:28;7.55;;;4.70;;
64052;SDS011;50299;49.524;8.536;2023-04-24T13:57:54;4.90;;;4.35;;
64052;SDS011;50299;49.524;8.536;2023-04-24T14:00:21;5.07;;;4.57;;
64052;SDS011;50299;49.524;8.536;2023-04-24T14:02:56;4.57;;;4.10;;
64052;SDS011;50299;49.524;8.536;2023-04-24T14:05:23;4.32;;;3.95;;
64052;SDS011;50299;49.524;8.536;2023-04-24T14:07:52;5.85;;;5.35;;
64052;SDS011;50299;49.524;8.536;2023-04-24T14:10:23;4.70;;;4.28;;
64052;SDS011;50299;49.524;8.536;2023-04-24T14:12:53;6.10;;;4.40;;
64052;SDS011;50299;49.524;8.536;2023-04-24T14:15:23;5.75;;;4.65;;
64052;SDS011;50299;49.524;8.536;2023-04-24T14:17:56;6.05;;;5.40;;
64052;SDS011;50299;49.524;8.536;2023-04-24T14:20:23;8.88;;;4.53;;
64052;SDS011;50299;49.524;8.536;2023-04-24T14:22:49;6.43;;;4.72;;
64052;SDS011;50299;49.524;8.536;2023-04-24T14:25:19;5.70;;;5.13;;
64052;SDS011;50299;49.524;8.536;2023-04-24T14:27:48;5.60;;;5.07;;
64052;SDS011;50299;49.524;8.536;2023-04-24T14:30:14;5.35;;;4.85;;
64052;SDS011;50299;49.524;8.536;2023-04-24T14:32:46;5.00;;;4.60;;
64052;SDS011;50299;49.524;8.536;2023-04-24T14:35:19;7.50;;;6.07;;
64052;SDS011;50299;49.524;8.536;2023-04-24T14:37:45;7.07;;;6.35;;
64052;SDS011;50299;49.524;8.536;2023-04-24T14:40:12;6.75;;;5.15;;
64052;SDS011;50299;49.524;8.536;2023-04-24T14:43:01;5.60;;;5.10;;
64052;SDS011;50299;49.524;8.536;2023-04-24T14:45:28;5.20;;;4.75;;
64052;SDS011;50299;49.524;8.536;2023-04-24T14:47:54;4.65;;;3.60;;
64052;SDS011;50299;49.524;8.536;2023-04-24T14:50:21;3.63;;;3.33;;
64052;SDS011;50299;49.524;8.536;2023-04-24T14:52:52;4.85;;;3.45;;
64052;SDS011;50299;49.524;8.536;2023-04-24T14:55:18;4.70;;;3.38;;
64052;SDS011;50299;49.524;8.536;2023-04-24T14:57:45;4.07;;;3.67;;
64052;SDS011;50299;49.524;8.536;2023-04-24T15:00:13;5.28;;;3.85;;
64052;SDS011;50299;49.524;8.536;2023-04-24T15:02:41;4.50;;;3.25;;
64052;SDS011;50299;49.524;8.536;2023-04-24T15:05:10;5.57;;;4.20;;
64052;SDS011;50299;49.524;8.536;2023-04-24T15:07:38;5.35;;;4.18;;
64052;SDS011;50299;49.524;8.536;2023-04-24T15:10:05;4.25;;;3.83;;
64052;SDS011;50299;49.524;8.536;2023-04-24T15:12:32;4.28;;;3.95;;